sensor_id;sensor_type;location;lat;lon;timestamp;P1;durP1;ratioP1;P2;durP2;ratioP2
46765;SDS011;32527;51.986;5.842;2023-02-28T00:00:20;7.15;;;3.65;;
46765;SDS011;32527;51.986;5.842;2023-02-28T00:02:46;9.43;;;4.93;;
46765;SDS011;32527;51.986;5.842;2023-02-28T00:05:13;8.93;;;4.03;;
46765;SDS011;32527;51.986;5.842;2023-02-28T00:07:41;10.88;;;4.18;;
46765;SDS011;32527;51.986;5.842;2023-02-28T00:10:08;7.50;;;3.78;;
46765;SDS011;32527;51.986;5.842;2023-02-28T00:12:36;5.90;;;4.07;;
46765;SDS011;32527;51.986;5.842;2023-02-28T00:15:05;6.75;;;4.07;;
46765;SDS011;32527;51.986;5.842;2023-02-28T00:17:35;11.50;;;4.72;;
46765;SDS011;32527;51.986;5.842;2023-02-28T00:20:01;7.70;;;5.20;;
46765;SDS011;32527;51.986;5.842;2023-02-28T00:22:44;10.25;;;4.07;;
46765;SDS011;32527;51.986;5.842;2023-02-28T00:25:12;12.02;;;4.55;;
46765;SDS011;32527;51.986;5.842;2023-02-28T00:27:40;7.50;;;3.95;;
46765;SDS011;32527;51.986;5.842;2023-02-28T00:30:07;6.45;;;3.85;;
46765;SDS011;32527;51.986;5.842;2023-02-28T00:32:36;8.48;;;4.38;;
46765;SDS011;32527;51.986;5.842;2023-02-28T00:35:03;8.90;;;4.53;;
46765;SDS011;32527;51.986;5.842;2023-02-28T00:37:29;9.57;;;4.13;;
46765;SDS011;32527;51.986;5.842;2023-02-28T00:39:55;6.65;;;4.47;;
46765;SDS011;32527;51.986;5.842;2023-02-28T00:42:21;6.65;;;4.65;;
46765;SDS011;32527;51.986;5.842;2023-02-28T00:44:48;8.10;;;4.18;;
46765;SDS011;32527;51.986;5.842;2023-02-28T00:47:14;8.25;;;4.38;;
46765;SDS011;32527;51.986;5.842;2023-02-28T00:49:40;9.02;;;4.05;;
46765;SDS011;32527;51.986;5.842;2023-02-28T00:52:08;11.07;;;4.38;;
46765;SDS011;32527;51.986;5.842;2023-02-28T00:54:34;7.57;;;4.55;;
46765;SDS011;32527;51.986;5.842;2023-02-28T00:57:00;7.30;;;3.90;;
46765;SDS011;32527;51.986;5.842;2023-02-28T00:59:26;7.18;;;3.90;;
46765;SDS011;32527;51.986;5.842;2023-02-28T01:01:52;15.85;;;4.13;;
46765;SDS011;32527;51.986;5.842;2023-02-28T01:04:20;6.03;;;4.05;;
46765;SDS011;32527;51.986;5.842;2023-02-28T01:06:46;11.48;;;4.32;;
46765;SDS011;32527;51.986;5.842;2023-02-28T01:09:11;7.68;;;3.85;;
46765;SDS011;32527;51.986;5.842;2023-02-28T01:11:37;8.55;;;4.60;;
46765;SDS011;32527;51.986;5.842;2023-02-28T01:14:05;7.50;;;5.15;;
46765;SDS011;32527;51.986;5.842;2023-02-28T01:16:31;7.38;;;4.70;;
46765;SDS011;32527;51.986;5.842;2023-02-28T01:18:58;9.27;;;4.78;;
46765;SDS011;32527;51.986;5.842;2023-02-28T01:21:24;10.40;;;4.97;;
46765;SDS011;32527;51.986;5.842;2023-02-28T01:23:50;6.40;;;4.13;;
46765;SDS011;32527;51.986;5.842;2023-02-28T01:26:17;8.68;;;3.95;;
46765;SDS011;32527;51.986;5.842;2023-02-28T01:28:44;9.73;;;4.22;;
46765;SDS011;32527;51.986;5.842;2023-02-28T01:31:11;7.30;;;4.00;;
46765;SDS011;32527;51.986;5.842;2023-02-28T01:33:37;10.75;;;4.72;;
46765;SDS011;32527;51.986;5.842;2023-02-28T01:36:04;6.30;;;4.18;;
46765;SDS011;32527;51.986;5.842;2023-02-28T01:38:32;7.25;;;5.38;;
46765;SDS011;32527;51.986;5.842;2023-02-28T01:40:58;8.52;;;4.38;;
46765;SDS011;32527;51.986;5.842;2023-02-28T01:43:27;8.20;;;4.63;;
46765;SDS011;32527;51.986;5.842;2023-02-28T01:45:58;6.90;;;3.90;;
46765;SDS011;32527;51.986;5.842;2023-02-28T01:48:25;8.15;;;4.57;;
46765;SDS011;32527;51.986;5.842;2023-02-28T01:51:00;8.90;;;4.53;;
46765;SDS011;32527;51.986;5.842;2023-02-28T01:53:32;8.82;;;3.97;;
46765;SDS011;32527;51.986;5.842;2023-02-28T01:56:02;6.43;;;4.05;;
46765;SDS011;32527;51.986;5.842;2023-02-28T01:58:29;9.05;;;4.72;;
46765;SDS011;32527;51.986;5.842;2023-02-28T02:00:55;6.20;;;3.67;;
46765;SDS011;32527;51.986;5.842;2023-02-28T02:03:22;8.32;;;4.30;;
46765;SDS011;32527;51.986;5.842;2023-02-28T02:05:48;7.82;;;4.00;;
46765;SDS011;32527;51.986;5.842;2023-02-28T02:08:16;11.63;;;4.60;;
46765;SDS011;32527;51.986;5.842;2023-02-28T02:10:54;9.63;;;4.85;;
46765;SDS011;32527;51.986;5.842;2023-02-28T02:24:52;9.02;;;4.25;;
46765;SDS011;32527;51.986;5.842;2023-02-28T02:27:57;7.97;;;4.18;;
46765;SDS011;32527;51.986;5.842;2023-02-28T02:41:52;7.25;;;4.43;;
46765;SDS011;32527;51.986;5.842;2023-02-28T02:44:23;7.25;;;4.25;;
46765;SDS011;32527;51.986;5.842;2023-02-28T02:47:01;9.05;;;4.13;;
46765;SDS011;32527;51.986;5.842;2023-02-28T02:49:39;8.05;;;4.10;;
46765;SDS011;32527;51.986;5.842;2023-02-28T02:52:12;6.55;;;4.05;;
46765;SDS011;32527;51.986;5.842;2023-02-28T02:54:43;10.65;;;4.50;;
46765;SDS011;32527;51.986;5.842;2023-02-28T02:57:13;7.63;;;3.58;;
46765;SDS011;32527;51.986;5.842;2023-02-28T03:00:01;9.38;;;4.28;;
46765;SDS011;32527;51.986;5.842;2023-02-28T03:02:30;9.00;;;4.70;;
46765;SDS011;32527;51.986;5.842;2023-02-28T03:05:00;7.88;;;4.55;;
46765;SDS011;32527;51.986;5.842;2023-02-28T03:07:29;8.35;;;3.90;;
46765;SDS011;32527;51.986;5.842;2023-02-28T03:09:56;7.97;;;4.85;;
46765;SDS011;32527;51.986;5.842;2023-02-28T03:12:43;11.35;;;4.05;;
46765;SDS011;32527;51.986;5.842;2023-02-28T03:15:20;6.60;;;4.35;;
46765;SDS011;32527;51.986;5.842;2023-02-28T03:20:35;7.88;;;4.15;;
46765;SDS011;32527;51.986;5.842;2023-02-28T03:23:18;10.18;;;4.03;;
46765;SDS011;32527;51.986;5.842;2023-02-28T03:25:53;6.28;;;3.80;;
46765;SDS011;32527;51.986;5.842;2023-02-28T03:28:31;10.40;;;4.40;;
46765;SDS011;32527;51.986;5.842;2023-02-28T03:31:15;7.47;;;3.80;;
46765;SDS011;32527;51.986;5.842;2023-02-28T03:34:09;8.77;;;3.88;;
46765;SDS011;32527;51.986;5.842;2023-02-28T03:36:37;6.75;;;4.10;;
46765;SDS011;32527;51.986;5.842;2023-02-28T03:39:11;7.88;;;3.80;;
46765;SDS011;32527;51.986;5.842;2023-02-28T03:41:57;8.17;;;4.43;;
46765;SDS011;32527;51.986;5.842;2023-02-28T03:44:32;6.85;;;3.65;;
46765;SDS011;32527;51.986;5.842;2023-02-28T03:50:07;6.47;;;3.72;;
46765;SDS011;32527;51.986;5.842;2023-02-28T03:52:45;7.10;;;3.33;;
46765;SDS011;32527;51.986;5.842;2023-02-28T03:55:14;5.90;;;2.70;;
46765;SDS011;32527;51.986;5.842;2023-02-28T03:57:50;4.80;;;2.58;;
46765;SDS011;32527;51.986;5.842;2023-02-28T04:00:39;4.68;;;2.70;;
46765;SDS011;32527;51.986;5.842;2023-02-28T04:03:09;4.90;;;3.08;;
46765;SDS011;32527;51.986;5.842;2023-02-28T04:05:44;4.70;;;2.42;;
46765;SDS011;32527;51.986;5.842;2023-02-28T04:08:21;5.25;;;2.40;;
46765;SDS011;32527;51.986;5.842;2023-02-28T04:11:06;5.40;;;2.60;;
46765;SDS011;32527;51.986;5.842;2023-02-28T04:13:51;3.85;;;2.63;;
46765;SDS011;32527;51.986;5.842;2023-02-28T04:16:17;3.70;;;2.53;;
46765;SDS011;32527;51.986;5.842;2023-02-28T04:18:42;4.53;;;2.83;;
46765;SDS011;32527;51.986;5.842;2023-02-28T04:21:08;7.05;;;2.47;;
46765;SDS011;32527;51.986;5.842;2023-02-28T04:23:35;4.85;;;2.50;;
46765;SDS011;32527;51.986;5.842;2023-02-28T04:26:01;3.30;;;2.55;;
46765;SDS011;32527;51.986;5.842;2023-02-28T04:28:26;5.35;;;2.58;;
46765;SDS011;32527;51.986;5.842;2023-02-28T04:30:59;3.35;;;2.38;;
46765;SDS011;32527;51.986;5.842;2023-02-28T04:33:27;8.65;;;3.17;;
46765;SDS011;32527;51.986;5.842;2023-02-28T04:36:00;6.18;;;2.78;;
46765;SDS011;32527;51.986;5.842;2023-02-28T04:38:28;5.20;;;3.20;;
46765;SDS011;32527;51.986;5.842;2023-02-28T04:40:56;7.40;;;3.05;;
46765;SDS011;32527;51.986;5.842;2023-02-28T04:43:22;3.90;;;2.88;;
46765;SDS011;32527;51.986;5.842;2023-02-28T04:45:48;5.88;;;3.40;;
46765;SDS011;32527;51.986;5.842;2023-02-28T04:48:14;4.93;;;3.05;;
46765;SDS011;32527;51.986;5.842;2023-02-28T04:50:40;5.70;;;2.80;;
46765;SDS011;32527;51.986;5.842;2023-02-28T04:53:05;3.42;;;2.70;;
46765;SDS011;32527;51.986;5.842;2023-02-28T04:55:31;3.95;;;2.78;;
46765;SDS011;32527;51.986;5.842;2023-02-28T04:57:56;5.00;;;2.80;;
46765;SDS011;32527;51.986;5.842;2023-02-28T05:00:22;5.25;;;2.67;;
46765;SDS011;32527;51.986;5.842;2023-02-28T05:02:49;7.80;;;2.88;;
46765;SDS011;32527;51.986;5.842;2023-02-28T05:05:14;6.93;;;3.00;;
46765;SDS011;32527;51.986;5.842;2023-02-28T05:07:43;6.38;;;3.03;;
46765;SDS011;32527;51.986;5.842;2023-02-28T05:10:10;3.85;;;2.70;;
46765;SDS011;32527;51.986;5.842;2023-02-28T05:12:36;4.38;;;2.50;;
46765;SDS011;32527;51.986;5.842;2023-02-28T05:15:02;4.00;;;3.00;;
46765;SDS011;32527;51.986;5.842;2023-02-28T05:17:30;6.32;;;4.00;;
46765;SDS011;32527;51.986;5.842;2023-02-28T05:19:56;9.02;;;3.13;;
46765;SDS011;32527;51.986;5.842;2023-02-28T05:22:22;3.80;;;2.53;;
46765;SDS011;32527;51.986;5.842;2023-02-28T05:24:48;6.63;;;2.88;;
46765;SDS011;32527;51.986;5.842;2023-02-28T05:27:13;4.72;;;2.58;;
46765;SDS011;32527;51.986;5.842;2023-02-28T05:29:39;4.97;;;2.65;;
46765;SDS011;32527;51.986;5.842;2023-02-28T05:32:09;4.70;;;2.83;;
46765;SDS011;32527;51.986;5.842;2023-02-28T05:34:36;4.38;;;2.60;;
46765;SDS011;32527;51.986;5.842;2023-02-28T05:37:02;4.15;;;3.00;;
46765;SDS011;32527;51.986;5.842;2023-02-28T05:39:28;6.25;;;3.10;;
46765;SDS011;32527;51.986;5.842;2023-02-28T05:41:54;5.32;;;2.80;;
46765;SDS011;32527;51.986;5.842;2023-02-28T05:44:20;9.55;;;2.90;;
46765;SDS011;32527;51.986;5.842;2023-02-28T05:46:45;6.30;;;3.10;;
46765;SDS011;32527;51.986;5.842;2023-02-28T05:49:11;7.35;;;2.47;;
46765;SDS011;32527;51.986;5.842;2023-02-28T05:51:37;4.10;;;2.47;;
46765;SDS011;32527;51.986;5.842;2023-02-28T05:54:05;3.92;;;2.70;;
46765;SDS011;32527;51.986;5.842;2023-02-28T05:56:31;7.15;;;2.92;;
46765;SDS011;32527;51.986;5.842;2023-02-28T05:58:59;4.93;;;2.30;;
46765;SDS011;32527;51.986;5.842;2023-02-28T06:04:20;7.10;;;2.60;;
46765;SDS011;32527;51.986;5.842;2023-02-28T06:06:46;6.05;;;3.20;;
46765;SDS011;32527;51.986;5.842;2023-02-28T06:09:13;4.22;;;2.83;;
46765;SDS011;32527;51.986;5.842;2023-02-28T06:11:40;3.85;;;2.90;;
46765;SDS011;32527;51.986;5.842;2023-02-28T06:14:06;4.72;;;2.60;;
46765;SDS011;32527;51.986;5.842;2023-02-28T06:16:32;6.07;;;2.80;;
46765;SDS011;32527;51.986;5.842;2023-02-28T06:19:01;5.43;;;2.70;;
46765;SDS011;32527;51.986;5.842;2023-02-28T06:21:28;5.80;;;3.10;;
46765;SDS011;32527;51.986;5.842;2023-02-28T06:23:54;6.95;;;2.80;;
46765;SDS011;32527;51.986;5.842;2023-02-28T06:26:21;5.65;;;3.40;;
46765;SDS011;32527;51.986;5.842;2023-02-28T06:28:47;6.57;;;3.30;;
46765;SDS011;32527;51.986;5.842;2023-02-28T06:31:13;4.32;;;2.80;;
46765;SDS011;32527;51.986;5.842;2023-02-28T06:33:41;4.50;;;2.90;;
46765;SDS011;32527;51.986;5.842;2023-02-28T06:36:08;5.50;;;3.08;;
46765;SDS011;32527;51.986;5.842;2023-02-28T06:38:34;5.85;;;2.63;;
46765;SDS011;32527;51.986;5.842;2023-02-28T06:41:07;4.15;;;2.75;;
46765;SDS011;32527;51.986;5.842;2023-02-28T06:43:34;4.95;;;2.78;;
46765;SDS011;32527;51.986;5.842;2023-02-28T06:46:03;6.30;;;2.67;;
46765;SDS011;32527;51.986;5.842;2023-02-28T06:48:32;7.32;;;4.00;;
46765;SDS011;32527;51.986;5.842;2023-02-28T06:51:01;11.05;;;3.10;;
46765;SDS011;32527;51.986;5.842;2023-02-28T06:53:31;4.25;;;2.60;;
46765;SDS011;32527;51.986;5.842;2023-02-28T06:55:57;6.72;;;2.83;;
46765;SDS011;32527;51.986;5.842;2023-02-28T06:58:23;4.18;;;2.83;;
46765;SDS011;32527;51.986;5.842;2023-02-28T07:00:52;5.80;;;2.60;;
46765;SDS011;32527;51.986;5.842;2023-02-28T07:03:18;6.90;;;2.40;;
46765;SDS011;32527;51.986;5.842;2023-02-28T07:05:45;6.40;;;3.10;;
46765;SDS011;32527;51.986;5.842;2023-02-28T07:08:11;3.90;;;2.30;;
46765;SDS011;32527;51.986;5.842;2023-02-28T07:10:37;5.55;;;2.60;;
46765;SDS011;32527;51.986;5.842;2023-02-28T07:13:04;4.65;;;2.50;;
46765;SDS011;32527;51.986;5.842;2023-02-28T07:15:30;3.38;;;2.50;;
46765;SDS011;32527;51.986;5.842;2023-02-28T07:17:56;3.90;;;2.95;;
46765;SDS011;32527;51.986;5.842;2023-02-28T07:20:22;5.90;;;2.63;;
46765;SDS011;32527;51.986;5.842;2023-02-28T07:22:48;6.13;;;2.95;;
46765;SDS011;32527;51.986;5.842;2023-02-28T07:25:23;7.22;;;2.70;;
46765;SDS011;32527;51.986;5.842;2023-02-28T07:27:54;3.92;;;2.30;;
46765;SDS011;32527;51.986;5.842;2023-02-28T07:30:21;5.25;;;2.30;;
46765;SDS011;32527;51.986;5.842;2023-02-28T07:32:47;4.28;;;2.50;;
46765;SDS011;32527;51.986;5.842;2023-02-28T07:35:13;4.53;;;2.58;;
46765;SDS011;32527;51.986;5.842;2023-02-28T07:37:40;5.93;;;2.90;;
46765;SDS011;32527;51.986;5.842;2023-02-28T07:40:07;5.25;;;2.53;;
46765;SDS011;32527;51.986;5.842;2023-02-28T07:42:37;3.53;;;2.50;;
46765;SDS011;32527;51.986;5.842;2023-02-28T07:45:03;4.05;;;2.30;;
46765;SDS011;32527;51.986;5.842;2023-02-28T07:47:30;4.47;;;2.75;;
46765;SDS011;32527;51.986;5.842;2023-02-28T07:49:56;4.75;;;2.55;;
46765;SDS011;32527;51.986;5.842;2023-02-28T07:52:22;9.45;;;3.03;;
46765;SDS011;32527;51.986;5.842;2023-02-28T07:54:51;5.45;;;3.03;;
46765;SDS011;32527;51.986;5.842;2023-02-28T07:57:17;10.63;;;3.10;;
46765;SDS011;32527;51.986;5.842;2023-02-28T07:59:43;7.20;;;2.90;;
46765;SDS011;32527;51.986;5.842;2023-02-28T08:02:12;8.70;;;4.18;;
46765;SDS011;32527;51.986;5.842;2023-02-28T08:04:41;7.78;;;3.28;;
46765;SDS011;32527;51.986;5.842;2023-02-28T08:07:07;5.43;;;2.70;;
46765;SDS011;32527;51.986;5.842;2023-02-28T08:09:34;6.03;;;2.55;;
46765;SDS011;32527;51.986;5.842;2023-02-28T08:12:00;4.07;;;2.47;;
46765;SDS011;32527;51.986;5.842;2023-02-28T08:14:25;4.22;;;2.78;;
46765;SDS011;32527;51.986;5.842;2023-02-28T08:16:51;8.10;;;2.80;;
46765;SDS011;32527;51.986;5.842;2023-02-28T08:19:17;5.15;;;2.70;;
46765;SDS011;32527;51.986;5.842;2023-02-28T08:21:43;4.65;;;2.70;;
46765;SDS011;32527;51.986;5.842;2023-02-28T08:24:08;7.20;;;2.90;;
46765;SDS011;32527;51.986;5.842;2023-02-28T08:26:34;5.20;;;2.85;;
46765;SDS011;32527;51.986;5.842;2023-02-28T08:29:00;3.92;;;2.80;;
46765;SDS011;32527;51.986;5.842;2023-02-28T08:31:26;10.10;;;3.63;;
46765;SDS011;32527;51.986;5.842;2023-02-28T08:33:52;6.25;;;2.83;;
46765;SDS011;32527;51.986;5.842;2023-02-28T08:36:21;4.20;;;2.67;;
46765;SDS011;32527;51.986;5.842;2023-02-28T08:38:48;5.85;;;2.65;;
46765;SDS011;32527;51.986;5.842;2023-02-28T08:41:13;7.18;;;2.88;;
46765;SDS011;32527;51.986;5.842;2023-02-28T08:43:39;4.07;;;2.25;;
46765;SDS011;32527;51.986;5.842;2023-02-28T08:46:06;8.70;;;3.13;;
46765;SDS011;32527;51.986;5.842;2023-02-28T08:48:33;4.72;;;2.70;;
46765;SDS011;32527;51.986;5.842;2023-02-28T08:51:02;3.30;;;2.35;;
46765;SDS011;32527;51.986;5.842;2023-02-28T08:53:44;3.83;;;2.58;;
46765;SDS011;32527;51.986;5.842;2023-02-28T08:56:11;4.40;;;3.35;;
46765;SDS011;32527;51.986;5.842;2023-02-28T08:58:39;4.93;;;2.83;;
46765;SDS011;32527;51.986;5.842;2023-02-28T09:01:13;4.35;;;2.80;;
46765;SDS011;32527;51.986;5.842;2023-02-28T09:03:41;3.17;;;2.50;;
46765;SDS011;32527;51.986;5.842;2023-02-28T09:06:08;5.50;;;2.88;;
46765;SDS011;32527;51.986;5.842;2023-02-28T09:08:35;6.95;;;2.88;;
46765;SDS011;32527;51.986;5.842;2023-02-28T09:11:01;4.15;;;2.42;;
46765;SDS011;32527;51.986;5.842;2023-02-28T09:13:28;3.40;;;2.17;;
46765;SDS011;32527;51.986;5.842;2023-02-28T09:15:56;3.33;;;2.10;;
46765;SDS011;32527;51.986;5.842;2023-02-28T09:18:23;5.88;;;2.45;;
46765;SDS011;32527;51.986;5.842;2023-02-28T09:20:49;5.45;;;2.53;;
46765;SDS011;32527;51.986;5.842;2023-02-28T09:23:15;2.70;;;2.20;;
46765;SDS011;32527;51.986;5.842;2023-02-28T09:25:45;4.60;;;2.50;;
46765;SDS011;32527;51.986;5.842;2023-02-28T09:28:12;4.47;;;2.45;;
46765;SDS011;32527;51.986;5.842;2023-02-28T09:30:41;5.60;;;2.38;;
46765;SDS011;32527;51.986;5.842;2023-02-28T09:33:08;2.65;;;1.95;;
46765;SDS011;32527;51.986;5.842;2023-02-28T09:35:33;4.03;;;2.40;;
46765;SDS011;32527;51.986;5.842;2023-02-28T09:38:02;2.35;;;1.90;;
46765;SDS011;32527;51.986;5.842;2023-02-28T09:40:28;4.15;;;2.20;;
46765;SDS011;32527;51.986;5.842;2023-02-28T09:42:55;2.45;;;1.98;;
46765;SDS011;32527;51.986;5.842;2023-02-28T09:45:26;2.67;;;1.70;;
46765;SDS011;32527;51.986;5.842;2023-02-28T09:48:12;1.88;;;1.60;;
46765;SDS011;32527;51.986;5.842;2023-02-28T09:50:48;2.80;;;2.13;;
46765;SDS011;32527;51.986;5.842;2023-02-28T09:56:07;3.97;;;1.95;;
46765;SDS011;32527;51.986;5.842;2023-02-28T09:58:40;4.00;;;2.00;;
46765;SDS011;32527;51.986;5.842;2023-02-28T10:01:21;3.55;;;2.30;;
46765;SDS011;32527;51.986;5.842;2023-02-28T10:04:12;3.65;;;2.25;;
46765;SDS011;32527;51.986;5.842;2023-02-28T10:07:02;3.97;;;2.08;;
46765;SDS011;32527;51.986;5.842;2023-02-28T10:09:42;1.90;;;1.60;;
46765;SDS011;32527;51.986;5.842;2023-02-28T10:12:12;4.35;;;2.53;;
46765;SDS011;32527;51.986;5.842;2023-02-28T10:14:41;4.38;;;2.63;;
46765;SDS011;32527;51.986;5.842;2023-02-28T10:17:16;3.65;;;2.55;;
46765;SDS011;32527;51.986;5.842;2023-02-28T10:22:22;2.75;;;1.98;;
46765;SDS011;32527;51.986;5.842;2023-02-28T10:24:53;3.70;;;2.28;;
46765;SDS011;32527;51.986;5.842;2023-02-28T10:29:55;4.70;;;2.40;;
46765;SDS011;32527;51.986;5.842;2023-02-28T10:32:26;3.75;;;2.10;;
46765;SDS011;32527;51.986;5.842;2023-02-28T10:34:55;3.37;;;1.87;;
46765;SDS011;32527;51.986;5.842;2023-02-28T10:37:25;3.88;;;2.33;;
46765;SDS011;32527;51.986;5.842;2023-02-28T10:39:52;3.60;;;2.30;;
46765;SDS011;32527;51.986;5.842;2023-02-28T10:42:28;2.53;;;2.00;;
46765;SDS011;32527;51.986;5.842;2023-02-28T10:47:54;3.80;;;1.95;;
46765;SDS011;32527;51.986;5.842;2023-02-28T10:50:43;4.70;;;2.78;;
46765;SDS011;32527;51.986;5.842;2023-02-28T10:53:17;4.65;;;2.38;;
46765;SDS011;32527;51.986;5.842;2023-02-28T10:55:56;2.72;;;2.10;;
46765;SDS011;32527;51.986;5.842;2023-02-28T10:58:26;2.45;;;2.13;;
46765;SDS011;32527;51.986;5.842;2023-02-28T11:01:14;3.45;;;2.30;;
46765;SDS011;32527;51.986;5.842;2023-02-28T11:03:45;2.53;;;2.00;;
46765;SDS011;32527;51.986;5.842;2023-02-28T11:06:19;2.53;;;2.03;;
46765;SDS011;32527;51.986;5.842;2023-02-28T11:08:52;3.95;;;2.20;;
46765;SDS011;32527;51.986;5.842;2023-02-28T11:11:21;4.65;;;2.47;;
46765;SDS011;32527;51.986;5.842;2023-02-28T11:13:50;4.22;;;2.30;;
46765;SDS011;32527;51.986;5.842;2023-02-28T11:16:18;5.07;;;2.50;;
46765;SDS011;32527;51.986;5.842;2023-02-28T11:18:54;3.72;;;2.33;;
46765;SDS011;32527;51.986;5.842;2023-02-28T11:21:31;2.95;;;2.15;;
46765;SDS011;32527;51.986;5.842;2023-02-28T11:24:01;4.68;;;2.47;;
46765;SDS011;32527;51.986;5.842;2023-02-28T11:26:38;3.17;;;2.47;;
46765;SDS011;32527;51.986;5.842;2023-02-28T11:29:21;3.33;;;2.25;;
46765;SDS011;32527;51.986;5.842;2023-02-28T11:32:00;5.22;;;2.63;;
46765;SDS011;32527;51.986;5.842;2023-02-28T11:34:43;3.45;;;2.40;;
46765;SDS011;32527;51.986;5.842;2023-02-28T11:37:12;4.07;;;2.53;;
46765;SDS011;32527;51.986;5.842;2023-02-28T11:39:40;3.25;;;2.13;;
46765;SDS011;32527;51.986;5.842;2023-02-28T11:42:20;2.95;;;2.03;;
46765;SDS011;32527;51.986;5.842;2023-02-28T11:56:23;3.83;;;2.30;;
46765;SDS011;32527;51.986;5.842;2023-02-28T12:07:24;3.58;;;2.72;;
46765;SDS011;32527;51.986;5.842;2023-02-28T12:12:55;3.47;;;2.35;;
46765;SDS011;32527;51.986;5.842;2023-02-28T12:21:43;3.88;;;2.10;;
46765;SDS011;32527;51.986;5.842;2023-02-28T12:27:10;6.25;;;2.58;;
46765;SDS011;32527;51.986;5.842;2023-02-28T12:32:20;6.55;;;2.95;;
46765;SDS011;32527;51.986;5.842;2023-02-28T12:40:04;9.63;;;3.03;;
46765;SDS011;32527;51.986;5.842;2023-02-28T12:42:48;3.40;;;2.47;;
46765;SDS011;32527;51.986;5.842;2023-02-28T12:45:27;2.67;;;2.35;;
46765;SDS011;32527;51.986;5.842;2023-02-28T12:48:06;5.55;;;2.70;;
46765;SDS011;32527;51.986;5.842;2023-02-28T12:50:35;7.35;;;3.08;;
46765;SDS011;32527;51.986;5.842;2023-02-28T12:55:53;6.53;;;2.97;;
46765;SDS011;32527;51.986;5.842;2023-02-28T12:59:42;5.88;;;3.15;;
46765;SDS011;32527;51.986;5.842;2023-02-28T13:10:06;4.63;;;2.90;;
46765;SDS011;32527;51.986;5.842;2023-02-28T13:12:33;3.50;;;3.00;;
46765;SDS011;32527;51.986;5.842;2023-02-28T13:18:05;10.80;;;3.05;;
46765;SDS011;32527;51.986;5.842;2023-02-28T13:20:50;4.55;;;2.75;;
46765;SDS011;32527;51.986;5.842;2023-02-28T13:26:05;6.20;;;2.42;;
46765;SDS011;32527;51.986;5.842;2023-02-28T13:31:18;3.45;;;2.53;;
46765;SDS011;32527;51.986;5.842;2023-02-28T13:36:30;5.18;;;2.80;;
46765;SDS011;32527;51.986;5.842;2023-02-28T13:38:58;3.63;;;2.50;;
46765;SDS011;32527;51.986;5.842;2023-02-28T13:44:02;6.53;;;3.10;;
46765;SDS011;32527;51.986;5.842;2023-02-28T14:00:06;4.78;;;2.83;;
46765;SDS011;32527;51.986;5.842;2023-02-28T14:03:43;3.42;;;2.47;;
46765;SDS011;32527;51.986;5.842;2023-02-28T14:11:26;4.53;;;2.88;;
46765;SDS011;32527;51.986;5.842;2023-02-28T14:13:54;6.10;;;3.28;;
46765;SDS011;32527;51.986;5.842;2023-02-28T14:16:21;4.63;;;2.60;;
46765;SDS011;32527;51.986;5.842;2023-02-28T14:19:01;6.47;;;3.03;;
46765;SDS011;32527;51.986;5.842;2023-02-28T14:22:12;5.32;;;2.53;;
46765;SDS011;32527;51.986;5.842;2023-02-28T14:24:41;8.35;;;3.20;;
46765;SDS011;32527;51.986;5.842;2023-02-28T14:27:33;4.65;;;2.80;;
46765;SDS011;32527;51.986;5.842;2023-02-28T14:30:14;4.85;;;2.65;;
46765;SDS011;32527;51.986;5.842;2023-02-28T14:33:17;3.88;;;2.75;;
46765;SDS011;32527;51.986;5.842;2023-02-28T14:38:43;3.65;;;2.60;;
46765;SDS011;32527;51.986;5.842;2023-02-28T14:41:27;4.50;;;3.20;;
46765;SDS011;32527;51.986;5.842;2023-02-28T14:43:55;4.40;;;2.45;;
46765;SDS011;32527;51.986;5.842;2023-02-28T14:46:27;6.07;;;2.97;;
46765;SDS011;32527;51.986;5.842;2023-02-28T14:48:59;4.53;;;2.58;;
46765;SDS011;32527;51.986;5.842;2023-02-28T14:51:26;4.43;;;2.42;;
46765;SDS011;32527;51.986;5.842;2023-02-28T14:53:56;4.28;;;2.58;;
46765;SDS011;32527;51.986;5.842;2023-02-28T14:56:26;5.07;;;2.47;;
46765;SDS011;32527;51.986;5.842;2023-02-28T14:59:00;4.45;;;2.88;;
46765;SDS011;32527;51.986;5.842;2023-02-28T15:01:26;4.05;;;2.40;;
46765;SDS011;32527;51.986;5.842;2023-02-28T15:04:03;3.60;;;2.35;;
46765;SDS011;32527;51.986;5.842;2023-02-28T15:06:31;9.75;;;2.45;;
46765;SDS011;32527;51.986;5.842;2023-02-28T15:09:13;3.85;;;2.70;;
46765;SDS011;32527;51.986;5.842;2023-02-28T15:11:40;3.40;;;2.50;;
46765;SDS011;32527;51.986;5.842;2023-02-28T15:14:13;4.20;;;2.80;;
46765;SDS011;32527;51.986;5.842;2023-02-28T15:16:43;3.95;;;2.80;;
46765;SDS011;32527;51.986;5.842;2023-02-28T15:19:14;5.30;;;2.70;;
46765;SDS011;32527;51.986;5.842;2023-02-28T15:21:50;4.25;;;2.50;;
46765;SDS011;32527;51.986;5.842;2023-02-28T15:26:59;5.78;;;2.78;;
46765;SDS011;32527;51.986;5.842;2023-02-28T15:29:28;4.32;;;2.13;;
46765;SDS011;32527;51.986;5.842;2023-02-28T15:32:00;4.13;;;2.63;;
46765;SDS011;32527;51.986;5.842;2023-02-28T15:37:01;5.95;;;2.90;;
46765;SDS011;32527;51.986;5.842;2023-02-28T15:39:31;3.78;;;2.30;;
46765;SDS011;32527;51.986;5.842;2023-02-28T15:42:12;3.47;;;2.58;;
46765;SDS011;32527;51.986;5.842;2023-02-28T15:44:44;4.65;;;2.65;;
46765;SDS011;32527;51.986;5.842;2023-02-28T15:47:18;2.55;;;2.30;;
46765;SDS011;32527;51.986;5.842;2023-02-28T15:49:47;4.15;;;2.53;;
46765;SDS011;32527;51.986;5.842;2023-02-28T15:52:15;2.92;;;2.28;;
46765;SDS011;32527;51.986;5.842;2023-02-28T15:57:43;4.40;;;2.58;;
46765;SDS011;32527;51.986;5.842;2023-02-28T16:00:12;4.45;;;2.67;;
46765;SDS011;32527;51.986;5.842;2023-02-28T16:02:40;12.43;;;2.67;;
46765;SDS011;32527;51.986;5.842;2023-02-28T16:07:36;4.93;;;2.83;;
46765;SDS011;32527;51.986;5.842;2023-02-28T16:10:07;5.88;;;3.13;;
46765;SDS011;32527;51.986;5.842;2023-02-28T16:12:34;5.63;;;3.42;;
46765;SDS011;32527;51.986;5.842;2023-02-28T16:15:02;6.35;;;3.55;;
46765;SDS011;32527;51.986;5.842;2023-02-28T16:17:51;6.05;;;3.22;;
46765;SDS011;32527;51.986;5.842;2023-02-28T16:20:19;4.10;;;2.72;;
46765;SDS011;32527;51.986;5.842;2023-02-28T16:22:49;5.72;;;2.90;;
46765;SDS011;32527;51.986;5.842;2023-02-28T16:25:17;5.95;;;2.60;;
46765;SDS011;32527;51.986;5.842;2023-02-28T16:27:45;3.85;;;2.70;;
46765;SDS011;32527;51.986;5.842;2023-02-28T16:30:18;3.72;;;2.40;;
46765;SDS011;32527;51.986;5.842;2023-02-28T16:32:56;5.13;;;2.95;;
46765;SDS011;32527;51.986;5.842;2023-02-28T16:35:22;3.95;;;2.72;;
46765;SDS011;32527;51.986;5.842;2023-02-28T16:37:50;5.00;;;3.00;;
46765;SDS011;32527;51.986;5.842;2023-02-28T16:40:18;6.32;;;3.22;;
46765;SDS011;32527;51.986;5.842;2023-02-28T16:42:46;5.40;;;3.13;;
46765;SDS011;32527;51.986;5.842;2023-02-28T16:45:20;6.50;;;2.80;;
46765;SDS011;32527;51.986;5.842;2023-02-28T16:47:48;6.05;;;3.15;;
46765;SDS011;32527;51.986;5.842;2023-02-28T16:52:44;5.53;;;2.95;;
46765;SDS011;32527;51.986;5.842;2023-02-28T16:55:10;4.47;;;2.70;;
46765;SDS011;32527;51.986;5.842;2023-02-28T16:57:37;5.93;;;3.30;;
46765;SDS011;32527;51.986;5.842;2023-02-28T17:00:04;5.30;;;3.20;;
46765;SDS011;32527;51.986;5.842;2023-02-28T17:05:53;5.50;;;2.85;;
46765;SDS011;32527;51.986;5.842;2023-02-28T17:08:45;5.90;;;2.33;;
46765;SDS011;32527;51.986;5.842;2023-02-28T17:26:44;4.90;;;2.22;;
46765;SDS011;32527;51.986;5.842;2023-02-28T17:29:29;3.47;;;2.70;;
46765;SDS011;32527;51.986;5.842;2023-02-28T17:31:54;3.97;;;2.78;;
46765;SDS011;32527;51.986;5.842;2023-02-28T17:34:21;3.40;;;2.60;;
46765;SDS011;32527;51.986;5.842;2023-02-28T17:36:47;4.25;;;2.70;;
46765;SDS011;32527;51.986;5.842;2023-02-28T17:39:15;4.60;;;2.80;;
46765;SDS011;32527;51.986;5.842;2023-02-28T17:41:52;5.65;;;2.90;;
46765;SDS011;32527;51.986;5.842;2023-02-28T17:44:20;4.25;;;2.55;;
46765;SDS011;32527;51.986;5.842;2023-02-28T17:46:46;2.63;;;2.28;;
46765;SDS011;32527;51.986;5.842;2023-02-28T17:49:12;4.88;;;2.90;;